createdAt,value
2023-03-23T16:08:54.001Z,100874.54
2023-03-23T16:11:25.188Z,100879.70
2023-03-23T16:13:53.478Z,100885.58
2023-03-23T16:16:23.651Z,100887.69
2023-03-23T16:18:52.286Z,100893.14
2023-03-23T16:21:20.498Z,100896.02
2023-03-23T16:23:48.853Z,100895.05
2023-03-23T16:26:17.233Z,100897.16
2023-03-23T16:28:45.726Z,100899.14
2023-03-23T16:31:14.316Z,100903.77
2023-03-23T16:33:42.695Z,100906.09
2023-03-23T16:36:12.690Z,100908.40
2023-03-23T16:38:49.014Z,100906.32
2023-03-23T16:41:18.001Z,100906.10
2023-03-23T16:43:46.074Z,100907.55
2023-03-23T16:46:14.513Z,100913.25
2023-03-23T16:48:43.126Z,100910.02
2023-03-23T16:51:11.461Z,100915.70
2023-03-23T16:53:39.596Z,100911.84
2023-03-23T16:56:07.871Z,100915.58
2023-03-23T16:58:36.354Z,100915.82
2023-03-23T17:01:04.644Z,100917.79
2023-03-23T17:03:32.836Z,100921.74
2023-03-23T17:06:02.032Z,100923.11
2023-03-23T17:08:30.410Z,100923.90
2023-03-23T17:10:58.485Z,100929.17
2023-03-23T17:13:28.197Z,100927.86
2023-03-23T17:15:57.522Z,100929.23
2023-03-23T17:18:26.608Z,100931.38
2023-03-23T17:20:55.613Z,100934.59
2023-03-23T17:23:24.551Z,100936.73
2023-03-23T17:25:53.798Z,100941.64
2023-03-23T17:28:22.868Z,100941.40
2023-03-23T17:30:51.907Z,100942.05
2023-03-23T17:33:20.081Z,100946.26
2023-03-23T17:35:52.083Z,100951.54
2023-03-23T17:38:21.232Z,100953.88
2023-03-23T17:41:02.130Z,100951.96
2023-03-23T17:43:30.612Z,100956.14
2023-03-23T17:45:59.001Z,100957.56
2023-03-23T17:48:27.483Z,100962.44
2023-03-23T17:50:59.439Z,100960.67
2023-03-23T17:53:27.617Z,100961.93
2023-03-23T17:55:56.721Z,100965.89
2023-03-23T17:58:26.605Z,100967.13
2023-03-23T18:00:56.186Z,100971.31
2023-03-23T18:03:24.790Z,100967.66
2023-03-23T18:05:58.132Z,100971.27
2023-03-23T18:08:38.350Z,100973.64
2023-03-23T18:11:07.396Z,100973.66
2023-03-23T18:13:36.589Z,100974.73
2023-03-23T18:16:06.313Z,100980.96
2023-03-23T18:18:35.607Z,100980.66
2023-03-23T18:21:05.943Z,100974.48
2023-03-23T18:23:39.046Z,100974.73
2023-03-23T18:26:12.842Z,100971.71
2023-03-23T18:28:43.559Z,100971.55
2023-03-23T18:31:13.763Z,100966.98
2023-03-23T18:33:45.258Z,100967.40
2023-03-23T18:36:18.504Z,100966.92
2023-03-23T18:38:47.789Z,100969.00
2023-03-23T18:41:16.568Z,100969.73
2023-03-23T18:43:45.143Z,100970.70
2023-03-23T18:46:13.946Z,100967.50
2023-03-23T18:48:42.322Z,100964.77
2023-03-23T18:51:10.803Z,100962.66
2023-03-23T18:53:38.890Z,100953.27
2023-03-23T18:56:09.080Z,100956.16
2023-03-23T18:58:37.908Z,100961.66
2023-03-23T19:01:10.833Z,100959.21
2023-03-23T19:03:39.731Z,100963.28
2023-03-23T19:06:19.084Z,100963.79
2023-03-23T19:08:47.827Z,100961.63
2023-03-23T19:11:16.404Z,100962.33
2023-03-23T19:13:58.477Z,100955.42
2023-03-23T19:16:31.702Z,100964.31
2023-03-23T19:19:01.976Z,100960.80
2023-03-23T19:21:31.950Z,100963.33
2023-03-23T19:24:01.770Z,100962.58
2023-03-23T19:26:40.480Z,100957.83
2023-03-23T19:31:46.661Z,100959.36
2023-03-23T19:34:15.938Z,100959.05
2023-03-23T19:36:54.299Z,100960.16
2023-03-23T19:39:28.088Z,100964.77
2023-03-23T19:41:56.373Z,100967.70
2023-03-23T19:44:25.457Z,100964.81
2023-03-23T19:46:54.516Z,100967.30
2023-03-23T19:49:22.996Z,100967.41
2023-03-23T19:52:05.077Z,100970.34
2023-03-23T19:54:39.165Z,100967.29
2023-03-23T19:57:08.233Z,100971.42
2023-03-23T19:59:36.963Z,100970.70
2023-03-23T20:02:06.203Z,100968.09
2023-03-23T20:04:35.701Z,100965.98
2023-03-23T20:07:07.783Z,100967.02
2023-03-23T20:09:39.799Z,100962.77
2023-03-23T20:12:08.086Z,100964.58
2023-03-23T20:14:37.541Z,100968.08
2023-03-23T20:17:10.006Z,100969.95
2023-03-23T20:19:38.666Z,100967.98
2023-03-23T20:22:07.520Z,100968.54
2023-03-23T20:24:37.014Z,100969.73
2023-03-23T20:27:06.490Z,100964.69
2023-03-23T20:29:35.029Z,100964.16
2023-03-23T20:32:03.772Z,100965.55
2023-03-23T20:34:32.038Z,100967.46
2023-03-23T20:37:02.041Z,100966.89
2023-03-23T20:39:32.434Z,100965.45
2023-03-23T20:42:06.052Z,100964.81
2023-03-23T20:44:36.200Z,100961.39
2023-03-23T20:47:05.023Z,100959.49
2023-03-23T20:49:35.353Z,100964.27
2023-03-23T20:52:04.750Z,100965.52
2023-03-23T20:54:33.135Z,100963.64
2023-03-23T20:57:02.162Z,100955.40
2023-03-23T20:59:32.768Z,100960.77
2023-03-23T21:02:00.947Z,100960.83
2023-03-23T21:04:30.355Z,100958.42
2023-03-23T21:06:58.740Z,100956.04
2023-03-23T21:09:26.854Z,100956.54
2023-03-23T21:11:55.477Z,100957.10
2023-03-23T21:14:24.513Z,100956.05
2023-03-23T21:16:52.895Z,100958.53
2023-03-23T21:19:22.102Z,100962.82
2023-03-23T21:21:55.754Z,100966.23
2023-03-23T21:24:29.233Z,100970.84
2023-03-23T21:26:58.514Z,100971.52
2023-03-23T21:29:27.632Z,100974.73
2023-03-23T21:34:28.359Z,100971.61
2023-03-23T21:36:56.740Z,100970.57
2023-03-23T21:39:26.400Z,100970.41
2023-03-23T21:41:54.555Z,100971.25
2023-03-23T21:44:23.499Z,100970.16
2023-03-23T21:46:52.662Z,100968.89
2023-03-23T21:49:21.324Z,100968.05
2023-03-23T21:51:50.225Z,100972.29
2023-03-23T21:54:21.161Z,100970.77
2023-03-23T21:56:49.579Z,100971.48
2023-03-23T21:59:18.028Z,100967.80
2023-03-23T22:01:46.146Z,100966.67
2023-03-23T22:04:14.402Z,100961.13
2023-03-23T22:06:42.768Z,100962.21
2023-03-23T22:09:11.069Z,100964.63
2023-03-23T22:11:39.749Z,100970.84
2023-03-23T22:14:08.875Z,100971.61
2023-03-23T22:16:37.726Z,100968.74
2023-03-23T22:19:06.894Z,100970.02
2023-03-23T22:21:35.337Z,100973.20
2023-03-23T22:24:03.638Z,100977.59
2023-03-23T22:26:31.999Z,100979.84
2023-03-23T22:29:01.102Z,100981.03
2023-03-23T22:31:32.746Z,100977.27
2023-03-23T22:34:01.786Z,100979.97
2023-03-23T22:36:30.700Z,100979.27
2023-03-23T22:38:59.246Z,100983.90
2023-03-23T22:41:28.739Z,100986.33
2023-03-23T22:43:57.443Z,100990.37
2023-03-23T22:46:26.357Z,100996.23
2023-03-23T22:48:55.021Z,100992.84
2023-03-23T22:51:24.106Z,100997.41
2023-03-23T22:53:52.313Z,100999.38
2023-03-23T22:56:21.625Z,100997.44
2023-03-23T22:58:50.004Z,100999.38
2023-03-23T23:01:19.889Z,101002.36
2023-03-23T23:03:48.775Z,101002.49
2023-03-23T23:06:17.615Z,100999.35
2023-03-23T23:08:46.986Z,101002.18
2023-03-23T23:11:16.457Z,101002.27
2023-03-23T23:13:44.912Z,101007.52
2023-03-23T23:16:14.346Z,101013.27
2023-03-23T23:18:43.841Z,101026.16
2023-03-23T23:21:14.269Z,101034.89
2023-03-23T23:23:42.645Z,101039.44
2023-03-23T23:26:10.721Z,101033.11
2023-03-23T23:28:38.906Z,101023.73
2023-03-23T23:31:22.805Z,101028.11
2023-03-23T23:33:51.130Z,101034.27
2023-03-23T23:36:21.453Z,101031.48
2023-03-23T23:38:49.637Z,101031.11
2023-03-23T23:41:20.266Z,101029.81
2023-03-23T23:43:48.758Z,101021.41
2023-03-23T23:46:17.490Z,101021.90
2023-03-23T23:48:49.000Z,101022.97
2023-03-23T23:51:17.812Z,101015.43
2023-03-23T23:53:53.594Z,101011.00
2023-03-23T23:56:22.418Z,101009.98
2023-03-23T23:58:51.861Z,101006.89
